sensor_id;sensor_type;location;lat;lon;timestamp;P1;durP1;ratioP1;P2;durP2;ratioP2
72573;SDS011;60603;52.548;13.420;2023-12-07T00:00:03;23.55;;;11.60;;
72573;SDS011;60603;52.548;13.420;2023-12-07T00:02:31;22.58;;;10.90;;
72573;SDS011;60603;52.548;13.420;2023-12-07T00:04:58;22.58;;;10.13;;
72573;SDS011;60603;52.548;13.420;2023-12-07T00:07:24;20.92;;;11.35;;
72573;SDS011;60603;52.548;13.420;2023-12-07T00:09:51;21.67;;;10.40;;
72573;SDS011;60603;52.548;13.420;2023-12-07T00:12:18;23.08;;;11.23;;
72573;SDS011;60603;52.548;13.420;2023-12-07T00:14:45;26.75;;;11.85;;
72573;SDS011;60603;52.548;13.420;2023-12-07T00:17:12;23.02;;;11.50;;
72573;SDS011;60603;52.548;13.420;2023-12-07T00:19:40;24.02;;;10.13;;
72573;SDS011;60603;52.548;13.420;2023-12-07T00:22:07;21.60;;;10.05;;
72573;SDS011;60603;52.548;13.420;2023-12-07T00:24:34;20.48;;;9.57;;
72573;SDS011;60603;52.548;13.420;2023-12-07T00:27:00;24.58;;;10.90;;
72573;SDS011;60603;52.548;13.420;2023-12-07T00:29:27;20.70;;;10.88;;
72573;SDS011;60603;52.548;13.420;2023-12-07T00:31:54;21.92;;;10.95;;
72573;SDS011;60603;52.548;13.420;2023-12-07T00:34:21;23.55;;;10.85;;
72573;SDS011;60603;52.548;13.420;2023-12-07T00:36:48;22.23;;;10.68;;
72573;SDS011;60603;52.548;13.420;2023-12-07T00:39:15;21.30;;;10.40;;
72573;SDS011;60603;52.548;13.420;2023-12-07T00:41:43;22.98;;;9.75;;
72573;SDS011;60603;52.548;13.420;2023-12-07T00:44:10;20.33;;;9.48;;
72573;SDS011;60603;52.548;13.420;2023-12-07T00:46:37;21.73;;;11.23;;
72573;SDS011;60603;52.548;13.420;2023-12-07T00:49:03;20.65;;;10.25;;
72573;SDS011;60603;52.548;13.420;2023-12-07T00:51:30;23.88;;;11.30;;
72573;SDS011;60603;52.548;13.420;2023-12-07T00:53:57;19.27;;;9.90;;
72573;SDS011;60603;52.548;13.420;2023-12-07T00:56:24;20.95;;;10.77;;
72573;SDS011;60603;52.548;13.420;2023-12-07T00:58:51;21.80;;;11.25;;
72573;SDS011;60603;52.548;13.420;2023-12-07T01:01:18;20.92;;;10.45;;
72573;SDS011;60603;52.548;13.420;2023-12-07T01:03:45;21.30;;;11.02;;
72573;SDS011;60603;52.548;13.420;2023-12-07T01:06:12;22.17;;;10.13;;
72573;SDS011;60603;52.548;13.420;2023-12-07T01:08:39;22.20;;;10.00;;
72573;SDS011;60603;52.548;13.420;2023-12-07T01:11:06;21.98;;;10.38;;
72573;SDS011;60603;52.548;13.420;2023-12-07T01:13:33;22.10;;;10.35;;
72573;SDS011;60603;52.548;13.420;2023-12-07T01:16:02;19.20;;;10.02;;
72573;SDS011;60603;52.548;13.420;2023-12-07T01:18:29;23.63;;;11.88;;
72573;SDS011;60603;52.548;13.420;2023-12-07T01:20:56;22.20;;;10.68;;
72573;SDS011;60603;52.548;13.420;2023-12-07T01:23:23;21.23;;;10.60;;
72573;SDS011;60603;52.548;13.420;2023-12-07T01:25:50;22.63;;;10.48;;
72573;SDS011;60603;52.548;13.420;2023-12-07T01:28:17;21.88;;;11.18;;
72573;SDS011;60603;52.548;13.420;2023-12-07T01:30:44;22.27;;;11.00;;
72573;SDS011;60603;52.548;13.420;2023-12-07T01:33:11;24.08;;;11.00;;
72573;SDS011;60603;52.548;13.420;2023-12-07T01:35:38;22.38;;;11.48;;
72573;SDS011;60603;52.548;13.420;2023-12-07T01:38:05;21.90;;;11.18;;
72573;SDS011;60603;52.548;13.420;2023-12-07T01:40:32;25.17;;;11.38;;
72573;SDS011;60603;52.548;13.420;2023-12-07T01:42:59;21.88;;;10.90;;
72573;SDS011;60603;52.548;13.420;2023-12-07T01:45:26;23.90;;;12.80;;
72573;SDS011;60603;52.548;13.420;2023-12-07T01:47:53;19.40;;;10.25;;
72573;SDS011;60603;52.548;13.420;2023-12-07T01:50:20;22.52;;;10.82;;
72573;SDS011;60603;52.548;13.420;2023-12-07T01:52:55;22.90;;;10.40;;
72573;SDS011;60603;52.548;13.420;2023-12-07T01:55:24;20.15;;;11.50;;
72573;SDS011;60603;52.548;13.420;2023-12-07T01:57:51;22.10;;;9.95;;
72573;SDS011;60603;52.548;13.420;2023-12-07T02:00:18;21.67;;;10.27;;
72573;SDS011;60603;52.548;13.420;2023-12-07T02:02:46;22.08;;;10.10;;
72573;SDS011;60603;52.548;13.420;2023-12-07T02:05:13;21.40;;;11.15;;
72573;SDS011;60603;52.548;13.420;2023-12-07T02:07:41;21.77;;;10.80;;
72573;SDS011;60603;52.548;13.420;2023-12-07T02:10:08;20.00;;;9.27;;
72573;SDS011;60603;52.548;13.420;2023-12-07T02:12:35;22.70;;;10.90;;
72573;SDS011;60603;52.548;13.420;2023-12-07T02:15:02;21.85;;;10.50;;
72573;SDS011;60603;52.548;13.420;2023-12-07T02:17:34;23.10;;;10.65;;
72573;SDS011;60603;52.548;13.420;2023-12-07T02:20:25;19.83;;;10.38;;
72573;SDS011;60603;52.548;13.420;2023-12-07T02:22:56;22.58;;;11.32;;
72573;SDS011;60603;52.548;13.420;2023-12-07T02:25:24;20.25;;;9.80;;
72573;SDS011;60603;52.548;13.420;2023-12-07T02:27:55;22.33;;;10.88;;
72573;SDS011;60603;52.548;13.420;2023-12-07T02:30:22;23.88;;;10.48;;
72573;SDS011;60603;52.548;13.420;2023-12-07T02:32:49;19.95;;;10.23;;
72573;SDS011;60603;52.548;13.420;2023-12-07T02:35:16;20.17;;;10.75;;
72573;SDS011;60603;52.548;13.420;2023-12-07T02:37:44;26.38;;;10.40;;
72573;SDS011;60603;52.548;13.420;2023-12-07T02:40:11;21.58;;;10.57;;
72573;SDS011;60603;52.548;13.420;2023-12-07T02:42:41;21.20;;;10.30;;
72573;SDS011;60603;52.548;13.420;2023-12-07T02:45:10;21.40;;;9.13;;
72573;SDS011;60603;52.548;13.420;2023-12-07T02:47:37;20.48;;;9.93;;
72573;SDS011;60603;52.548;13.420;2023-12-07T02:50:07;21.90;;;10.77;;
72573;SDS011;60603;52.548;13.420;2023-12-07T02:55:01;19.83;;;9.65;;
72573;SDS011;60603;52.548;13.420;2023-12-07T02:57:29;21.40;;;10.05;;
72573;SDS011;60603;52.548;13.420;2023-12-07T02:59:56;20.48;;;10.27;;
72573;SDS011;60603;52.548;13.420;2023-12-07T03:02:23;21.90;;;10.23;;
72573;SDS011;60603;52.548;13.420;2023-12-07T03:04:51;21.48;;;10.05;;
72573;SDS011;60603;52.548;13.420;2023-12-07T03:07:18;17.05;;;8.80;;
72573;SDS011;60603;52.548;13.420;2023-12-07T03:09:45;22.60;;;10.82;;
72573;SDS011;60603;52.548;13.420;2023-12-07T03:12:12;20.40;;;10.45;;
72573;SDS011;60603;52.548;13.420;2023-12-07T03:14:38;20.63;;;9.60;;
72573;SDS011;60603;52.548;13.420;2023-12-07T03:17:05;22.35;;;10.45;;
72573;SDS011;60603;52.548;13.420;2023-12-07T03:19:32;19.85;;;9.77;;
72573;SDS011;60603;52.548;13.420;2023-12-07T03:21:59;17.65;;;9.35;;
72573;SDS011;60603;52.548;13.420;2023-12-07T03:24:26;20.77;;;10.60;;
72573;SDS011;60603;52.548;13.420;2023-12-07T03:26:52;22.65;;;10.88;;
72573;SDS011;60603;52.548;13.420;2023-12-07T03:29:19;25.73;;;11.25;;
72573;SDS011;60603;52.548;13.420;2023-12-07T03:31:46;21.33;;;10.65;;
72573;SDS011;60603;52.548;13.420;2023-12-07T03:34:13;21.27;;;10.50;;
72573;SDS011;60603;52.548;13.420;2023-12-07T03:36:45;24.50;;;11.13;;
72573;SDS011;60603;52.548;13.420;2023-12-07T03:39:14;24.42;;;11.85;;
72573;SDS011;60603;52.548;13.420;2023-12-07T03:41:42;23.98;;;10.50;;
72573;SDS011;60603;52.548;13.420;2023-12-07T03:44:08;27.13;;;11.18;;
72573;SDS011;60603;52.548;13.420;2023-12-07T03:46:36;22.65;;;10.75;;
72573;SDS011;60603;52.548;13.420;2023-12-07T03:49:02;26.90;;;12.05;;
72573;SDS011;60603;52.548;13.420;2023-12-07T03:51:30;24.50;;;13.43;;
72573;SDS011;60603;52.548;13.420;2023-12-07T03:53:56;28.33;;;12.00;;
72573;SDS011;60603;52.548;13.420;2023-12-07T03:56:27;28.25;;;12.75;;
72573;SDS011;60603;52.548;13.420;2023-12-07T03:58:55;27.40;;;12.50;;
72573;SDS011;60603;52.548;13.420;2023-12-07T04:01:22;29.67;;;12.73;;
72573;SDS011;60603;52.548;13.420;2023-12-07T04:03:50;25.27;;;11.35;;
72573;SDS011;60603;52.548;13.420;2023-12-07T04:06:21;29.98;;;13.38;;
72573;SDS011;60603;52.548;13.420;2023-12-07T04:08:48;34.03;;;13.75;;
72573;SDS011;60603;52.548;13.420;2023-12-07T04:11:16;25.15;;;12.32;;
72573;SDS011;60603;52.548;13.420;2023-12-07T04:13:43;32.05;;;14.50;;
72573;SDS011;60603;52.548;13.420;2023-12-07T04:16:10;29.13;;;13.10;;
72573;SDS011;60603;52.548;13.420;2023-12-07T04:18:37;26.90;;;12.73;;
72573;SDS011;60603;52.548;13.420;2023-12-07T04:21:04;26.52;;;12.60;;
72573;SDS011;60603;52.548;13.420;2023-12-07T04:23:32;30.80;;;13.40;;
72573;SDS011;60603;52.548;13.420;2023-12-07T04:25:59;28.95;;;13.25;;
72573;SDS011;60603;52.548;13.420;2023-12-07T04:28:26;29.65;;;12.25;;
72573;SDS011;60603;52.548;13.420;2023-12-07T04:30:53;27.05;;;12.00;;
72573;SDS011;60603;52.548;13.420;2023-12-07T04:33:20;25.35;;;12.18;;
72573;SDS011;60603;52.548;13.420;2023-12-07T04:35:47;24.95;;;11.88;;
72573;SDS011;60603;52.548;13.420;2023-12-07T04:38:15;31.88;;;13.30;;
72573;SDS011;60603;52.548;13.420;2023-12-07T04:40:42;31.08;;;13.05;;
72573;SDS011;60603;52.548;13.420;2023-12-07T04:43:08;26.42;;;11.65;;
72573;SDS011;60603;52.548;13.420;2023-12-07T04:45:36;27.15;;;13.43;;
72573;SDS011;60603;52.548;13.420;2023-12-07T04:48:03;29.05;;;11.52;;
72573;SDS011;60603;52.548;13.420;2023-12-07T04:50:31;28.42;;;13.20;;
72573;SDS011;60603;52.548;13.420;2023-12-07T04:52:58;26.27;;;12.65;;
72573;SDS011;60603;52.548;13.420;2023-12-07T04:55:25;30.77;;;12.77;;
72573;SDS011;60603;52.548;13.420;2023-12-07T04:57:53;25.08;;;10.85;;
72573;SDS011;60603;52.548;13.420;2023-12-07T05:00:20;26.55;;;11.52;;
72573;SDS011;60603;52.548;13.420;2023-12-07T05:02:47;24.70;;;12.40;;
72573;SDS011;60603;52.548;13.420;2023-12-07T05:05:15;28.40;;;12.05;;
72573;SDS011;60603;52.548;13.420;2023-12-07T05:07:41;27.25;;;11.15;;
72573;SDS011;60603;52.548;13.420;2023-12-07T05:10:09;30.45;;;11.63;;
72573;SDS011;60603;52.548;13.420;2023-12-07T05:12:36;30.15;;;12.10;;
72573;SDS011;60603;52.548;13.420;2023-12-07T05:15:03;32.65;;;11.68;;
72573;SDS011;60603;52.548;13.420;2023-12-07T05:17:32;27.75;;;12.35;;
72573;SDS011;60603;52.548;13.420;2023-12-07T05:20:00;29.63;;;10.75;;
72573;SDS011;60603;52.548;13.420;2023-12-07T05:22:27;26.63;;;11.20;;
72573;SDS011;60603;52.548;13.420;2023-12-07T05:24:55;26.77;;;11.73;;
72573;SDS011;60603;52.548;13.420;2023-12-07T05:27:22;29.48;;;11.75;;
72573;SDS011;60603;52.548;13.420;2023-12-07T05:29:49;33.10;;;13.73;;
72573;SDS011;60603;52.548;13.420;2023-12-07T05:32:18;32.17;;;11.52;;
72573;SDS011;60603;52.548;13.420;2023-12-07T05:34:45;27.52;;;11.70;;
72573;SDS011;60603;52.548;13.420;2023-12-07T05:37:12;29.75;;;11.73;;
72573;SDS011;60603;52.548;13.420;2023-12-07T05:39:39;26.00;;;10.90;;
72573;SDS011;60603;52.548;13.420;2023-12-07T05:42:06;33.25;;;11.77;;
72573;SDS011;60603;52.548;13.420;2023-12-07T05:44:33;27.77;;;11.48;;
72573;SDS011;60603;52.548;13.420;2023-12-07T05:47:00;27.33;;;10.75;;
72573;SDS011;60603;52.548;13.420;2023-12-07T05:49:27;32.17;;;11.68;;
72573;SDS011;60603;52.548;13.420;2023-12-07T05:51:54;28.60;;;11.98;;
72573;SDS011;60603;52.548;13.420;2023-12-07T05:54:21;26.60;;;10.65;;
72573;SDS011;60603;52.548;13.420;2023-12-07T05:56:51;25.75;;;10.95;;
72573;SDS011;60603;52.548;13.420;2023-12-07T05:59:18;29.83;;;11.60;;
72573;SDS011;60603;52.548;13.420;2023-12-07T06:01:45;28.88;;;12.38;;
72573;SDS011;60603;52.548;13.420;2023-12-07T06:04:12;24.15;;;10.77;;
72573;SDS011;60603;52.548;13.420;2023-12-07T06:06:39;27.88;;;11.15;;
72573;SDS011;60603;52.548;13.420;2023-12-07T06:09:07;24.38;;;11.25;;
72573;SDS011;60603;52.548;13.420;2023-12-07T06:11:35;27.77;;;11.60;;
72573;SDS011;60603;52.548;13.420;2023-12-07T06:14:02;32.10;;;11.55;;
72573;SDS011;60603;52.548;13.420;2023-12-07T06:16:29;30.65;;;12.82;;
72573;SDS011;60603;52.548;13.420;2023-12-07T06:18:56;30.58;;;11.32;;
72573;SDS011;60603;52.548;13.420;2023-12-07T06:21:24;29.15;;;12.95;;
72573;SDS011;60603;52.548;13.420;2023-12-07T06:23:52;25.65;;;10.93;;
72573;SDS011;60603;52.548;13.420;2023-12-07T06:26:19;27.00;;;11.50;;
72573;SDS011;60603;52.548;13.420;2023-12-07T06:28:46;30.63;;;12.23;;
72573;SDS011;60603;52.548;13.420;2023-12-07T06:31:13;30.00;;;12.05;;
72573;SDS011;60603;52.548;13.420;2023-12-07T06:33:42;26.13;;;11.13;;
72573;SDS011;60603;52.548;13.420;2023-12-07T06:36:09;31.13;;;11.98;;
72573;SDS011;60603;52.548;13.420;2023-12-07T06:38:37;29.08;;;11.35;;
72573;SDS011;60603;52.548;13.420;2023-12-07T06:41:05;30.40;;;12.35;;
72573;SDS011;60603;52.548;13.420;2023-12-07T06:43:32;26.98;;;11.13;;
72573;SDS011;60603;52.548;13.420;2023-12-07T06:45:59;28.60;;;12.77;;
72573;SDS011;60603;52.548;13.420;2023-12-07T06:48:26;30.33;;;11.90;;
72573;SDS011;60603;52.548;13.420;2023-12-07T06:50:53;28.50;;;12.00;;
72573;SDS011;60603;52.548;13.420;2023-12-07T06:53:20;31.42;;;13.82;;
72573;SDS011;60603;52.548;13.420;2023-12-07T06:55:46;30.48;;;12.50;;
72573;SDS011;60603;52.548;13.420;2023-12-07T06:58:14;31.30;;;12.27;;
72573;SDS011;60603;52.548;13.420;2023-12-07T07:00:41;29.25;;;11.90;;
72573;SDS011;60603;52.548;13.420;2023-12-07T07:03:08;29.52;;;11.68;;
72573;SDS011;60603;52.548;13.420;2023-12-07T07:05:35;30.27;;;12.73;;
72573;SDS011;60603;52.548;13.420;2023-12-07T07:08:02;32.88;;;13.18;;
72573;SDS011;60603;52.548;13.420;2023-12-07T07:10:29;31.95;;;11.45;;
72573;SDS011;60603;52.548;13.420;2023-12-07T07:12:59;28.20;;;11.82;;
72573;SDS011;60603;52.548;13.420;2023-12-07T07:15:32;40.30;;;13.50;;
72573;SDS011;60603;52.548;13.420;2023-12-07T07:17:59;28.73;;;11.38;;
72573;SDS011;60603;52.548;13.420;2023-12-07T07:20:26;25.40;;;10.95;;
72573;SDS011;60603;52.548;13.420;2023-12-07T07:22:53;28.00;;;11.73;;
72573;SDS011;60603;52.548;13.420;2023-12-07T07:25:20;29.60;;;11.45;;
72573;SDS011;60603;52.548;13.420;2023-12-07T07:27:47;26.42;;;10.68;;
72573;SDS011;60603;52.548;13.420;2023-12-07T07:30:14;30.02;;;12.05;;
72573;SDS011;60603;52.548;13.420;2023-12-07T07:32:41;30.00;;;14.25;;
72573;SDS011;60603;52.548;13.420;2023-12-07T07:35:08;33.78;;;12.35;;
72573;SDS011;60603;52.548;13.420;2023-12-07T07:37:35;31.48;;;12.70;;
72573;SDS011;60603;52.548;13.420;2023-12-07T07:40:02;32.22;;;13.15;;
72573;SDS011;60603;52.548;13.420;2023-12-07T07:42:33;31.95;;;12.27;;
72573;SDS011;60603;52.548;13.420;2023-12-07T07:45:04;25.33;;;11.88;;
72573;SDS011;60603;52.548;13.420;2023-12-07T07:47:37;47.30;;;15.95;;
72573;SDS011;60603;52.548;13.420;2023-12-07T07:50:05;38.58;;;15.05;;
72573;SDS011;60603;52.548;13.420;2023-12-07T07:52:33;27.83;;;11.45;;
72573;SDS011;60603;52.548;13.420;2023-12-07T07:55:00;32.85;;;13.10;;
72573;SDS011;60603;52.548;13.420;2023-12-07T07:57:29;33.55;;;12.60;;
72573;SDS011;60603;52.548;13.420;2023-12-07T07:59:57;29.77;;;12.88;;
72573;SDS011;60603;52.548;13.420;2023-12-07T08:02:24;28.83;;;10.85;;
72573;SDS011;60603;52.548;13.420;2023-12-07T08:04:51;30.35;;;12.68;;
72573;SDS011;60603;52.548;13.420;2023-12-07T08:07:18;30.90;;;12.32;;
72573;SDS011;60603;52.548;13.420;2023-12-07T08:09:45;30.70;;;11.82;;
72573;SDS011;60603;52.548;13.420;2023-12-07T08:12:12;27.23;;;11.55;;
72573;SDS011;60603;52.548;13.420;2023-12-07T08:14:39;28.30;;;12.20;;
72573;SDS011;60603;52.548;13.420;2023-12-07T08:17:09;31.10;;;11.75;;
72573;SDS011;60603;52.548;13.420;2023-12-07T08:19:36;29.60;;;12.18;;
72573;SDS011;60603;52.548;13.420;2023-12-07T08:22:04;29.95;;;12.48;;
72573;SDS011;60603;52.548;13.420;2023-12-07T08:24:31;26.83;;;11.55;;
72573;SDS011;60603;52.548;13.420;2023-12-07T08:26:58;28.95;;;11.38;;
72573;SDS011;60603;52.548;13.420;2023-12-07T08:29:25;24.77;;;10.40;;
72573;SDS011;60603;52.548;13.420;2023-12-07T08:31:52;25.90;;;12.23;;
72573;SDS011;60603;52.548;13.420;2023-12-07T08:34:19;26.33;;;10.95;;
72573;SDS011;60603;52.548;13.420;2023-12-07T08:39:16;29.15;;;11.40;;
72573;SDS011;60603;52.548;13.420;2023-12-07T08:41:43;29.65;;;12.70;;
72573;SDS011;60603;52.548;13.420;2023-12-07T08:44:10;27.05;;;12.40;;
72573;SDS011;60603;52.548;13.420;2023-12-07T08:46:38;26.13;;;11.65;;
72573;SDS011;60603;52.548;13.420;2023-12-07T08:49:05;27.77;;;10.88;;
72573;SDS011;60603;52.548;13.420;2023-12-07T08:51:33;27.15;;;12.55;;
72573;SDS011;60603;52.548;13.420;2023-12-07T08:54:00;25.30;;;10.95;;
72573;SDS011;60603;52.548;13.420;2023-12-07T08:56:30;23.52;;;9.98;;
72573;SDS011;60603;52.548;13.420;2023-12-07T08:58:57;24.05;;;10.52;;
72573;SDS011;60603;52.548;13.420;2023-12-07T09:01:24;25.73;;;11.60;;
72573;SDS011;60603;52.548;13.420;2023-12-07T09:03:59;28.50;;;11.00;;
72573;SDS011;60603;52.548;13.420;2023-12-07T09:06:26;21.85;;;9.50;;
72573;SDS011;60603;52.548;13.420;2023-12-07T09:08:53;23.85;;;10.30;;
72573;SDS011;60603;52.548;13.420;2023-12-07T09:11:21;24.75;;;11.15;;
72573;SDS011;60603;52.548;13.420;2023-12-07T09:13:48;24.40;;;11.30;;
72573;SDS011;60603;52.548;13.420;2023-12-07T09:16:16;23.27;;;10.40;;
72573;SDS011;60603;52.548;13.420;2023-12-07T09:18:43;25.33;;;10.40;;
72573;SDS011;60603;52.548;13.420;2023-12-07T09:21:11;23.75;;;11.13;;
72573;SDS011;60603;52.548;13.420;2023-12-07T09:23:39;25.65;;;11.00;;
72573;SDS011;60603;52.548;13.420;2023-12-07T09:26:06;22.65;;;10.50;;
72573;SDS011;60603;52.548;13.420;2023-12-07T09:28:34;22.13;;;10.15;;
72573;SDS011;60603;52.548;13.420;2023-12-07T09:31:01;22.50;;;10.57;;
72573;SDS011;60603;52.548;13.420;2023-12-07T09:33:28;24.70;;;11.30;;
72573;SDS011;60603;52.548;13.420;2023-12-07T09:35:55;24.35;;;10.63;;
72573;SDS011;60603;52.548;13.420;2023-12-07T09:38:22;28.02;;;12.18;;
72573;SDS011;60603;52.548;13.420;2023-12-07T09:40:52;25.58;;;10.73;;
72573;SDS011;60603;52.548;13.420;2023-12-07T09:43:19;26.25;;;10.90;;
72573;SDS011;60603;52.548;13.420;2023-12-07T09:45:47;25.58;;;11.52;;
72573;SDS011;60603;52.548;13.420;2023-12-07T09:48:15;24.23;;;9.90;;
72573;SDS011;60603;52.548;13.420;2023-12-07T09:50:43;19.52;;;9.38;;
72573;SDS011;60603;52.548;13.420;2023-12-07T09:53:10;21.25;;;9.32;;
72573;SDS011;60603;52.548;13.420;2023-12-07T09:55:37;21.52;;;10.25;;
72573;SDS011;60603;52.548;13.420;2023-12-07T09:58:05;18.65;;;7.75;;
72573;SDS011;60603;52.548;13.420;2023-12-07T10:00:35;20.35;;;8.90;;
72573;SDS011;60603;52.548;13.420;2023-12-07T10:03:03;23.20;;;10.02;;
72573;SDS011;60603;52.548;13.420;2023-12-07T10:05:52;23.98;;;9.68;;
72573;SDS011;60603;52.548;13.420;2023-12-07T10:08:31;24.42;;;9.90;;
72573;SDS011;60603;52.548;13.420;2023-12-07T10:11:06;26.48;;;10.77;;
72573;SDS011;60603;52.548;13.420;2023-12-07T10:13:34;25.40;;;11.23;;
72573;SDS011;60603;52.548;13.420;2023-12-07T10:16:12;26.52;;;10.93;;
72573;SDS011;60603;52.548;13.420;2023-12-07T10:18:42;27.00;;;12.38;;
72573;SDS011;60603;52.548;13.420;2023-12-07T10:21:11;26.77;;;11.10;;
72573;SDS011;60603;52.548;13.420;2023-12-07T10:23:40;27.92;;;11.73;;
72573;SDS011;60603;52.548;13.420;2023-12-07T10:26:10;27.60;;;11.70;;
72573;SDS011;60603;52.548;13.420;2023-12-07T10:28:37;27.20;;;12.00;;
72573;SDS011;60603;52.548;13.420;2023-12-07T10:31:09;29.52;;;11.75;;
72573;SDS011;60603;52.548;13.420;2023-12-07T10:36:04;26.90;;;11.32;;
72573;SDS011;60603;52.548;13.420;2023-12-07T10:38:31;31.25;;;11.57;;
72573;SDS011;60603;52.548;13.420;2023-12-07T10:41:05;25.33;;;11.63;;
72573;SDS011;60603;52.548;13.420;2023-12-07T10:43:35;29.33;;;11.27;;
72573;SDS011;60603;52.548;13.420;2023-12-07T10:46:05;28.38;;;11.60;;
72573;SDS011;60603;52.548;13.420;2023-12-07T10:48:32;27.38;;;11.30;;
72573;SDS011;60603;52.548;13.420;2023-12-07T10:51:00;28.90;;;11.73;;
72573;SDS011;60603;52.548;13.420;2023-12-07T10:53:32;25.80;;;11.48;;
72573;SDS011;60603;52.548;13.420;2023-12-07T10:56:09;29.40;;;11.57;;
72573;SDS011;60603;52.548;13.420;2023-12-07T10:58:37;27.80;;;11.85;;
72573;SDS011;60603;52.548;13.420;2023-12-07T11:01:06;28.35;;;10.93;;
72573;SDS011;60603;52.548;13.420;2023-12-07T11:03:35;29.60;;;13.27;;
72573;SDS011;60603;52.548;13.420;2023-12-07T11:06:04;28.25;;;11.98;;
72573;SDS011;60603;52.548;13.420;2023-12-07T11:08:43;27.65;;;10.98;;
72573;SDS011;60603;52.548;13.420;2023-12-07T11:11:38;29.20;;;11.68;;
72573;SDS011;60603;52.548;13.420;2023-12-07T11:14:10;27.45;;;11.52;;
72573;SDS011;60603;52.548;13.420;2023-12-07T11:16:42;25.77;;;11.52;;
72573;SDS011;60603;52.548;13.420;2023-12-07T11:22:01;25.42;;;10.45;;
72573;SDS011;60603;52.548;13.420;2023-12-07T11:24:32;31.00;;;11.82;;
72573;SDS011;60603;52.548;13.420;2023-12-07T11:26:59;26.55;;;11.40;;
72573;SDS011;60603;52.548;13.420;2023-12-07T11:29:28;29.08;;;11.98;;
72573;SDS011;60603;52.548;13.420;2023-12-07T11:31:56;26.73;;;10.55;;
72573;SDS011;60603;52.548;13.420;2023-12-07T11:34:42;25.17;;;10.77;;
72573;SDS011;60603;52.548;13.420;2023-12-07T11:37:11;26.02;;;10.15;;
72573;SDS011;60603;52.548;13.420;2023-12-07T11:39:45;23.70;;;10.35;;
72573;SDS011;60603;52.548;13.420;2023-12-07T11:42:16;23.63;;;10.52;;
72573;SDS011;60603;52.548;13.420;2023-12-07T11:44:46;23.83;;;11.00;;
72573;SDS011;60603;52.548;13.420;2023-12-07T11:47:16;26.63;;;10.60;;
72573;SDS011;60603;52.548;13.420;2023-12-07T11:49:44;26.00;;;10.27;;
72573;SDS011;60603;52.548;13.420;2023-12-07T11:52:20;27.50;;;11.73;;
72573;SDS011;60603;52.548;13.420;2023-12-07T11:54:48;25.08;;;10.18;;
72573;SDS011;60603;52.548;13.420;2023-12-07T11:57:16;25.45;;;11.40;;
72573;SDS011;60603;52.548;13.420;2023-12-07T11:59:44;29.13;;;11.15;;
72573;SDS011;60603;52.548;13.420;2023-12-07T12:02:11;25.70;;;11.32;;
72573;SDS011;60603;52.548;13.420;2023-12-07T12:04:42;27.13;;;10.65;;
72573;SDS011;60603;52.548;13.420;2023-12-07T12:07:10;27.65;;;11.23;;
72573;SDS011;60603;52.548;13.420;2023-12-07T12:09:37;29.48;;;12.65;;
72573;SDS011;60603;52.548;13.420;2023-12-07T12:12:04;28.20;;;12.23;;
72573;SDS011;60603;52.548;13.420;2023-12-07T12:14:31;28.13;;;11.20;;
72573;SDS011;60603;52.548;13.420;2023-12-07T12:16:58;26.60;;;11.82;;
72573;SDS011;60603;52.548;13.420;2023-12-07T12:19:25;27.05;;;11.68;;
72573;SDS011;60603;52.548;13.420;2023-12-07T12:22:03;28.45;;;12.05;;
72573;SDS011;60603;52.548;13.420;2023-12-07T12:24:34;28.42;;;11.55;;
72573;SDS011;60603;52.548;13.420;2023-12-07T12:27:02;26.42;;;12.13;;
72573;SDS011;60603;52.548;13.420;2023-12-07T12:29:30;26.40;;;11.60;;
72573;SDS011;60603;52.548;13.420;2023-12-07T12:32:01;30.88;;;12.45;;
72573;SDS011;60603;52.548;13.420;2023-12-07T12:34:29;26.20;;;11.75;;
72573;SDS011;60603;52.548;13.420;2023-12-07T12:36:56;26.50;;;11.93;;
72573;SDS011;60603;52.548;13.420;2023-12-07T12:39:27;31.85;;;12.73;;
72573;SDS011;60603;52.548;13.420;2023-12-07T12:42:00;27.90;;;12.23;;
72573;SDS011;60603;52.548;13.420;2023-12-07T12:44:30;28.85;;;12.15;;
72573;SDS011;60603;52.548;13.420;2023-12-07T12:47:07;30.35;;;14.07;;
72573;SDS011;60603;52.548;13.420;2023-12-07T12:49:38;32.88;;;13.27;;
72573;SDS011;60603;52.548;13.420;2023-12-07T12:52:10;30.40;;;13.23;;
72573;SDS011;60603;52.548;13.420;2023-12-07T12:54:39;33.85;;;13.57;;
72573;SDS011;60603;52.548;13.420;2023-12-07T12:57:10;30.73;;;13.50;;
72573;SDS011;60603;52.548;13.420;2023-12-07T12:59:36;31.80;;;13.18;;
72573;SDS011;60603;52.548;13.420;2023-12-07T13:02:04;33.28;;;14.27;;
72573;SDS011;60603;52.548;13.420;2023-12-07T13:04:31;32.72;;;14.07;;
72573;SDS011;60603;52.548;13.420;2023-12-07T13:07:08;30.58;;;13.98;;
72573;SDS011;60603;52.548;13.420;2023-12-07T13:09:35;31.10;;;14.00;;
72573;SDS011;60603;52.548;13.420;2023-12-07T13:12:02;34.47;;;15.80;;
72573;SDS011;60603;52.548;13.420;2023-12-07T13:14:32;32.60;;;13.38;;
72573;SDS011;60603;52.548;13.420;2023-12-07T13:17:03;34.05;;;15.90;;
72573;SDS011;60603;52.548;13.420;2023-12-07T13:19:31;37.67;;;16.38;;
72573;SDS011;60603;52.548;13.420;2023-12-07T13:21:59;30.77;;;13.88;;
72573;SDS011;60603;52.548;13.420;2023-12-07T13:24:29;34.35;;;14.25;;
72573;SDS011;60603;52.548;13.420;2023-12-07T13:26:57;33.22;;;15.65;;
72573;SDS011;60603;52.548;13.420;2023-12-07T13:29:26;35.00;;;14.38;;
72573;SDS011;60603;52.548;13.420;2023-12-07T13:32:03;34.72;;;15.20;;
72573;SDS011;60603;52.548;13.420;2023-12-07T13:34:30;33.05;;;14.40;;
72573;SDS011;60603;52.548;13.420;2023-12-07T13:36:58;36.03;;;16.27;;
72573;SDS011;60603;52.548;13.420;2023-12-07T13:39:25;34.15;;;15.48;;
72573;SDS011;60603;52.548;13.420;2023-12-07T13:41:57;34.13;;;15.07;;
72573;SDS011;60603;52.548;13.420;2023-12-07T13:44:28;38.55;;;17.08;;
72573;SDS011;60603;52.548;13.420;2023-12-07T13:46:55;37.05;;;15.13;;
72573;SDS011;60603;52.548;13.420;2023-12-07T13:49:24;40.85;;;16.50;;
72573;SDS011;60603;52.548;13.420;2023-12-07T13:52:00;39.70;;;15.52;;
72573;SDS011;60603;52.548;13.420;2023-12-07T13:54:33;38.60;;;16.77;;
72573;SDS011;60603;52.548;13.420;2023-12-07T13:57:19;43.40;;;17.25;;
72573;SDS011;60603;52.548;13.420;2023-12-07T13:59:47;46.40;;;18.27;;
72573;SDS011;60603;52.548;13.420;2023-12-07T14:02:14;47.15;;;17.73;;
72573;SDS011;60603;52.548;13.420;2023-12-07T14:04:42;45.47;;;17.83;;
72573;SDS011;60603;52.548;13.420;2023-12-07T14:07:10;44.50;;;17.02;;
72573;SDS011;60603;52.548;13.420;2023-12-07T14:09:41;43.67;;;18.33;;
72573;SDS011;60603;52.548;13.420;2023-12-07T14:12:23;46.00;;;18.17;;
72573;SDS011;60603;52.548;13.420;2023-12-07T14:14:51;47.70;;;18.25;;
72573;SDS011;60603;52.548;13.420;2023-12-07T14:17:18;40.13;;;17.35;;
72573;SDS011;60603;52.548;13.420;2023-12-07T14:19:46;45.42;;;18.67;;
72573;SDS011;60603;52.548;13.420;2023-12-07T14:22:15;46.40;;;17.20;;
72573;SDS011;60603;52.548;13.420;2023-12-07T14:24:42;48.75;;;19.48;;